sensor_id;sensor_type;location;lat;lon;timestamp;temperature;humidity
7002;DHT22;3541;53.230;10.518;2023-07-31T00:01:35;16.00;99.90
7002;DHT22;3541;53.230;10.518;2023-07-31T00:04:02;15.90;99.90
7002;DHT22;3541;53.230;10.518;2023-07-31T00:06:29;16.00;99.90
7002;DHT22;3541;53.230;10.518;2023-07-31T00:08:56;15.90;99.90
7002;DHT22;3541;53.230;10.518;2023-07-31T00:11:24;15.90;99.90
7002;DHT22;3541;53.230;10.518;2023-07-31T00:13:50;15.90;99.90
7002;DHT22;3541;53.230;10.518;2023-07-31T00:16:17;15.90;99.90
7002;DHT22;3541;53.230;10.518;2023-07-31T00:18:43;16.00;99.90
7002;DHT22;3541;53.230;10.518;2023-07-31T00:21:10;16.00;99.90
7002;DHT22;3541;53.230;10.518;2023-07-31T00:23:36;16.00;99.90
7002;DHT22;3541;53.230;10.518;2023-07-31T00:26:03;16.00;99.90
7002;DHT22;3541;53.230;10.518;2023-07-31T00:28:31;16.00;99.90
7002;DHT22;3541;53.230;10.518;2023-07-31T00:30:57;15.90;99.90
7002;DHT22;3541;53.230;10.518;2023-07-31T00:33:24;15.90;99.90
7002;DHT22;3541;53.230;10.518;2023-07-31T00:35:50;16.00;99.90
7002;DHT22;3541;53.230;10.518;2023-07-31T00:38:17;16.00;99.90
7002;DHT22;3541;53.230;10.518;2023-07-31T00:40:44;15.90;99.90
7002;DHT22;3541;53.230;10.518;2023-07-31T00:43:10;15.90;99.90
7002;DHT22;3541;53.230;10.518;2023-07-31T00:45:38;16.00;99.90
7002;DHT22;3541;53.230;10.518;2023-07-31T00:48:05;15.90;99.90
7002;DHT22;3541;53.230;10.518;2023-07-31T00:50:33;16.00;99.90
7002;DHT22;3541;53.230;10.518;2023-07-31T00:53:00;16.00;99.90
7002;DHT22;3541;53.230;10.518;2023-07-31T00:55:27;16.00;99.90
7002;DHT22;3541;53.230;10.518;2023-07-31T00:57:54;16.00;99.90
7002;DHT22;3541;53.230;10.518;2023-07-31T01:00:22;16.00;99.90
7002;DHT22;3541;53.230;10.518;2023-07-31T01:02:51;15.90;99.90
7002;DHT22;3541;53.230;10.518;2023-07-31T01:05:23;16.00;99.90
7002;DHT22;3541;53.230;10.518;2023-07-31T01:07:54;15.90;99.90
7002;DHT22;3541;53.230;10.518;2023-07-31T01:10:26;16.00;99.90
7002;DHT22;3541;53.230;10.518;2023-07-31T01:12:53;15.90;99.90
7002;DHT22;3541;53.230;10.518;2023-07-31T01:15:22;16.00;99.90
7002;DHT22;3541;53.230;10.518;2023-07-31T01:17:50;16.00;99.90
7002;DHT22;3541;53.230;10.518;2023-07-31T01:20:21;16.10;99.90
7002;DHT22;3541;53.230;10.518;2023-07-31T01:23:15;16.00;99.90
7002;DHT22;3541;53.230;10.518;2023-07-31T01:26:00;16.10;99.90
7002;DHT22;3541;53.230;10.518;2023-07-31T01:28:37;16.10;99.90
7002;DHT22;3541;53.230;10.518;2023-07-31T01:31:07;16.00;99.90
7002;DHT22;3541;53.230;10.518;2023-07-31T01:33:36;16.00;99.90
7002;DHT22;3541;53.230;10.518;2023-07-31T01:36:04;16.00;99.90
7002;DHT22;3541;53.230;10.518;2023-07-31T01:38:31;16.00;99.90
7002;DHT22;3541;53.230;10.518;2023-07-31T01:40:59;16.00;99.90
7002;DHT22;3541;53.230;10.518;2023-07-31T01:43:25;16.10;99.90
7002;DHT22;3541;53.230;10.518;2023-07-31T01:45:52;16.10;99.90
7002;DHT22;3541;53.230;10.518;2023-07-31T01:48:19;16.10;99.90
7002;DHT22;3541;53.230;10.518;2023-07-31T01:50:45;16.00;99.90
7002;DHT22;3541;53.230;10.518;2023-07-31T01:53:12;16.00;99.90
7002;DHT22;3541;53.230;10.518;2023-07-31T01:55:38;16.10;99.90
7002;DHT22;3541;53.230;10.518;2023-07-31T01:58:06;16.00;99.90
7002;DHT22;3541;53.230;10.518;2023-07-31T02:00:33;16.00;99.90
7002;DHT22;3541;53.230;10.518;2023-07-31T02:03:00;16.00;99.90
7002;DHT22;3541;53.230;10.518;2023-07-31T02:05:26;16.00;99.90
7002;DHT22;3541;53.230;10.518;2023-07-31T02:07:53;16.00;99.90
7002;DHT22;3541;53.230;10.518;2023-07-31T02:10:19;16.00;99.90
7002;DHT22;3541;53.230;10.518;2023-07-31T02:12:46;16.00;99.90
7002;DHT22;3541;53.230;10.518;2023-07-31T02:15:14;15.90;99.90
7002;DHT22;3541;53.230;10.518;2023-07-31T02:17:41;15.90;99.90
7002;DHT22;3541;53.230;10.518;2023-07-31T02:20:08;15.90;99.90
7002;DHT22;3541;53.230;10.518;2023-07-31T02:22:35;15.90;99.90
7002;DHT22;3541;53.230;10.518;2023-07-31T02:25:01;15.90;99.90
7002;DHT22;3541;53.230;10.518;2023-07-31T02:27:28;15.90;99.90
7002;DHT22;3541;53.230;10.518;2023-07-31T02:29:55;15.90;99.90
7002;DHT22;3541;53.230;10.518;2023-07-31T02:32:22;15.90;99.90
7002;DHT22;3541;53.230;10.518;2023-07-31T02:34:49;15.90;99.90
7002;DHT22;3541;53.230;10.518;2023-07-31T02:37:16;15.90;99.90
7002;DHT22;3541;53.230;10.518;2023-07-31T02:39:42;15.90;99.90
7002;DHT22;3541;53.230;10.518;2023-07-31T02:42:09;15.90;99.90
7002;DHT22;3541;53.230;10.518;2023-07-31T02:44:36;15.90;99.90
7002;DHT22;3541;53.230;10.518;2023-07-31T02:47:03;15.90;99.90
7002;DHT22;3541;53.230;10.518;2023-07-31T02:49:31;15.90;99.90
7002;DHT22;3541;53.230;10.518;2023-07-31T02:51:57;15.90;99.90
7002;DHT22;3541;53.230;10.518;2023-07-31T02:54:24;15.90;99.90
7002;DHT22;3541;53.230;10.518;2023-07-31T02:56:50;15.80;99.90
7002;DHT22;3541;53.230;10.518;2023-07-31T02:59:17;15.80;99.90
7002;DHT22;3541;53.230;10.518;2023-07-31T03:01:44;15.70;99.90
7002;DHT22;3541;53.230;10.518;2023-07-31T03:04:11;15.80;99.90
7002;DHT22;3541;53.230;10.518;2023-07-31T03:06:39;15.80;99.90
7002;DHT22;3541;53.230;10.518;2023-07-31T03:09:05;15.80;99.90
7002;DHT22;3541;53.230;10.518;2023-07-31T03:11:32;15.80;99.90
7002;DHT22;3541;53.230;10.518;2023-07-31T03:13:58;15.90;99.90
7002;DHT22;3541;53.230;10.518;2023-07-31T03:16:25;15.80;99.90
7002;DHT22;3541;53.230;10.518;2023-07-31T03:18:51;15.90;99.90
7002;DHT22;3541;53.230;10.518;2023-07-31T03:21:18;15.90;99.90
7002;DHT22;3541;53.230;10.518;2023-07-31T03:23:46;15.90;99.90
7002;DHT22;3541;53.230;10.518;2023-07-31T03:26:13;15.80;99.90
7002;DHT22;3541;53.230;10.518;2023-07-31T03:28:39;15.90;99.90
7002;DHT22;3541;53.230;10.518;2023-07-31T03:31:06;15.80;99.90
7002;DHT22;3541;53.230;10.518;2023-07-31T03:33:33;15.90;99.90
7002;DHT22;3541;53.230;10.518;2023-07-31T03:36:00;15.80;99.90
7002;DHT22;3541;53.230;10.518;2023-07-31T03:38:27;15.70;99.90
7002;DHT22;3541;53.230;10.518;2023-07-31T03:40:55;15.80;99.90
7002;DHT22;3541;53.230;10.518;2023-07-31T03:43:21;15.80;99.90
7002;DHT22;3541;53.230;10.518;2023-07-31T03:45:48;15.80;99.90
7002;DHT22;3541;53.230;10.518;2023-07-31T03:48:15;15.70;99.90
7002;DHT22;3541;53.230;10.518;2023-07-31T03:50:41;15.80;99.90
7002;DHT22;3541;53.230;10.518;2023-07-31T03:53:08;15.80;99.90
7002;DHT22;3541;53.230;10.518;2023-07-31T03:55:35;15.80;99.90
7002;DHT22;3541;53.230;10.518;2023-07-31T03:58:03;15.80;99.90
7002;DHT22;3541;53.230;10.518;2023-07-31T04:00:29;15.80;99.90
7002;DHT22;3541;53.230;10.518;2023-07-31T04:02:56;15.90;99.90
7002;DHT22;3541;53.230;10.518;2023-07-31T04:05:22;15.80;99.90
7002;DHT22;3541;53.230;10.518;2023-07-31T04:07:49;15.80;99.90
7002;DHT22;3541;53.230;10.518;2023-07-31T04:10:16;15.80;99.90
7002;DHT22;3541;53.230;10.518;2023-07-31T04:12:42;15.90;99.90
7002;DHT22;3541;53.230;10.518;2023-07-31T04:15:10;15.90;99.90
7002;DHT22;3541;53.230;10.518;2023-07-31T04:17:37;15.90;99.90
7002;DHT22;3541;53.230;10.518;2023-07-31T04:20:04;15.80;99.90
7002;DHT22;3541;53.230;10.518;2023-07-31T04:22:31;15.80;99.90
7002;DHT22;3541;53.230;10.518;2023-07-31T04:24:58;15.80;99.90
7002;DHT22;3541;53.230;10.518;2023-07-31T04:27:24;15.90;99.90
7002;DHT22;3541;53.230;10.518;2023-07-31T04:29:51;15.80;99.90
7002;DHT22;3541;53.230;10.518;2023-07-31T04:32:19;15.90;99.90
7002;DHT22;3541;53.230;10.518;2023-07-31T04:34:46;15.90;99.90
7002;DHT22;3541;53.230;10.518;2023-07-31T04:37:12;15.80;99.90
7002;DHT22;3541;53.230;10.518;2023-07-31T04:39:39;15.90;99.90
7002;DHT22;3541;53.230;10.518;2023-07-31T04:42:06;15.90;99.90
7002;DHT22;3541;53.230;10.518;2023-07-31T04:44:33;15.90;99.90
7002;DHT22;3541;53.230;10.518;2023-07-31T04:46:59;16.00;99.90
7002;DHT22;3541;53.230;10.518;2023-07-31T04:49:29;15.90;99.90
7002;DHT22;3541;53.230;10.518;2023-07-31T04:51:56;15.90;99.90
7002;DHT22;3541;53.230;10.518;2023-07-31T04:54:22;15.90;99.90
7002;DHT22;3541;53.230;10.518;2023-07-31T04:56:49;15.90;99.90
7002;DHT22;3541;53.230;10.518;2023-07-31T04:59:16;15.90;99.90
7002;DHT22;3541;53.230;10.518;2023-07-31T05:01:42;15.90;99.90
7002;DHT22;3541;53.230;10.518;2023-07-31T05:04:12;15.90;99.90
7002;DHT22;3541;53.230;10.518;2023-07-31T05:06:40;15.90;99.90
7002;DHT22;3541;53.230;10.518;2023-07-31T05:09:06;15.90;99.90
7002;DHT22;3541;53.230;10.518;2023-07-31T05:11:34;15.90;99.90
7002;DHT22;3541;53.230;10.518;2023-07-31T05:14:01;15.90;99.90
7002;DHT22;3541;53.230;10.518;2023-07-31T05:16:27;15.90;99.90
7002;DHT22;3541;53.230;10.518;2023-07-31T05:18:54;15.90;99.90
7002;DHT22;3541;53.230;10.518;2023-07-31T05:21:20;15.90;99.90
7002;DHT22;3541;53.230;10.518;2023-07-31T05:23:49;15.90;99.90
7002;DHT22;3541;53.230;10.518;2023-07-31T05:26:15;15.90;99.90
7002;DHT22;3541;53.230;10.518;2023-07-31T05:28:43;15.90;99.90
7002;DHT22;3541;53.230;10.518;2023-07-31T05:31:09;15.90;99.90
7002;DHT22;3541;53.230;10.518;2023-07-31T05:33:36;15.90;99.90
7002;DHT22;3541;53.230;10.518;2023-07-31T05:36:02;15.90;99.90
7002;DHT22;3541;53.230;10.518;2023-07-31T05:38:29;16.00;99.90
7002;DHT22;3541;53.230;10.518;2023-07-31T05:40:57;16.00;99.90
7002;DHT22;3541;53.230;10.518;2023-07-31T05:43:24;16.00;99.90
7002;DHT22;3541;53.230;10.518;2023-07-31T05:45:51;16.00;99.90
7002;DHT22;3541;53.230;10.518;2023-07-31T05:48:17;16.00;99.90
7002;DHT22;3541;53.230;10.518;2023-07-31T05:50:44;16.00;99.90
7002;DHT22;3541;53.230;10.518;2023-07-31T05:53:10;16.10;99.90
7002;DHT22;3541;53.230;10.518;2023-07-31T05:55:37;16.10;99.90
7002;DHT22;3541;53.230;10.518;2023-07-31T05:58:05;16.00;99.90
7002;DHT22;3541;53.230;10.518;2023-07-31T06:00:31;15.90;99.90
7002;DHT22;3541;53.230;10.518;2023-07-31T06:02:58;16.00;99.90
7002;DHT22;3541;53.230;10.518;2023-07-31T06:05:25;16.00;99.90
7002;DHT22;3541;53.230;10.518;2023-07-31T06:07:51;16.10;99.90
7002;DHT22;3541;53.230;10.518;2023-07-31T06:10:18;16.10;99.90
7002;DHT22;3541;53.230;10.518;2023-07-31T06:12:44;16.10;99.90
7002;DHT22;3541;53.230;10.518;2023-07-31T06:15:13;16.10;99.90
7002;DHT22;3541;53.230;10.518;2023-07-31T06:17:39;16.10;99.90
7002;DHT22;3541;53.230;10.518;2023-07-31T06:20:07;16.20;99.90
7002;DHT22;3541;53.230;10.518;2023-07-31T06:22:33;16.20;99.90
7002;DHT22;3541;53.230;10.518;2023-07-31T06:25:00;16.20;99.90
7002;DHT22;3541;53.230;10.518;2023-07-31T06:27:27;16.20;99.90
7002;DHT22;3541;53.230;10.518;2023-07-31T06:29:53;16.20;99.90
7002;DHT22;3541;53.230;10.518;2023-07-31T06:32:21;16.20;99.90
7002;DHT22;3541;53.230;10.518;2023-07-31T06:34:48;16.20;99.90
7002;DHT22;3541;53.230;10.518;2023-07-31T06:37:14;16.20;99.90
7002;DHT22;3541;53.230;10.518;2023-07-31T06:39:41;16.20;99.90
7002;DHT22;3541;53.230;10.518;2023-07-31T06:42:08;16.30;99.90
7002;DHT22;3541;53.230;10.518;2023-07-31T06:44:34;16.30;99.90
7002;DHT22;3541;53.230;10.518;2023-07-31T06:47:01;16.30;99.90
7002;DHT22;3541;53.230;10.518;2023-07-31T06:49:29;16.30;99.90
7002;DHT22;3541;53.230;10.518;2023-07-31T06:51:55;16.40;99.90
7002;DHT22;3541;53.230;10.518;2023-07-31T06:54:22;16.40;99.90
7002;DHT22;3541;53.230;10.518;2023-07-31T06:56:49;16.40;99.90
7002;DHT22;3541;53.230;10.518;2023-07-31T06:59:15;16.50;99.90
7002;DHT22;3541;53.230;10.518;2023-07-31T07:01:42;16.50;99.90
7002;DHT22;3541;53.230;10.518;2023-07-31T07:04:08;16.60;99.90
7002;DHT22;3541;53.230;10.518;2023-07-31T07:06:36;16.50;99.90
7002;DHT22;3541;53.230;10.518;2023-07-31T07:09:03;16.60;99.90
7002;DHT22;3541;53.230;10.518;2023-07-31T07:11:29;16.60;99.90
7002;DHT22;3541;53.230;10.518;2023-07-31T07:13:56;16.60;99.90
7002;DHT22;3541;53.230;10.518;2023-07-31T07:16:23;16.60;99.90
7002;DHT22;3541;53.230;10.518;2023-07-31T07:18:49;16.60;99.90
7002;DHT22;3541;53.230;10.518;2023-07-31T07:21:16;16.60;99.90
7002;DHT22;3541;53.230;10.518;2023-07-31T07:23:44;16.60;99.90
7002;DHT22;3541;53.230;10.518;2023-07-31T07:26:11;16.60;99.90
7002;DHT22;3541;53.230;10.518;2023-07-31T07:28:37;16.60;99.90
7002;DHT22;3541;53.230;10.518;2023-07-31T07:31:04;16.60;99.90
7002;DHT22;3541;53.230;10.518;2023-07-31T07:33:30;16.70;99.90
7002;DHT22;3541;53.230;10.518;2023-07-31T07:36:00;16.60;99.90
7002;DHT22;3541;53.230;10.518;2023-07-31T07:38:26;16.60;99.90
7002;DHT22;3541;53.230;10.518;2023-07-31T07:40:55;16.60;99.90
7002;DHT22;3541;53.230;10.518;2023-07-31T07:43:21;16.60;99.90
7002;DHT22;3541;53.230;10.518;2023-07-31T07:45:48;16.60;99.90
7002;DHT22;3541;53.230;10.518;2023-07-31T07:48:14;16.60;99.90
7002;DHT22;3541;53.230;10.518;2023-07-31T07:50:42;16.60;99.90
7002;DHT22;3541;53.230;10.518;2023-07-31T07:53:09;16.60;99.90
7002;DHT22;3541;53.230;10.518;2023-07-31T07:55:35;16.60;99.90
7002;DHT22;3541;53.230;10.518;2023-07-31T07:58:03;16.60;99.90
7002;DHT22;3541;53.230;10.518;2023-07-31T08:00:30;16.60;99.90
7002;DHT22;3541;53.230;10.518;2023-07-31T08:02:56;16.60;99.90
7002;DHT22;3541;53.230;10.518;2023-07-31T08:05:23;16.70;99.90
7002;DHT22;3541;53.230;10.518;2023-07-31T08:07:50;16.70;99.90
7002;DHT22;3541;53.230;10.518;2023-07-31T08:10:17;16.70;99.90
7002;DHT22;3541;53.230;10.518;2023-07-31T08:12:43;16.60;99.90
7002;DHT22;3541;53.230;10.518;2023-07-31T08:15:11;16.70;99.90
7002;DHT22;3541;53.230;10.518;2023-07-31T08:17:38;16.70;99.90
7002;DHT22;3541;53.230;10.518;2023-07-31T08:20:06;16.70;99.90
7002;DHT22;3541;53.230;10.518;2023-07-31T08:22:32;16.70;99.90
7002;DHT22;3541;53.230;10.518;2023-07-31T08:24:59;16.60;99.90
7002;DHT22;3541;53.230;10.518;2023-07-31T08:27:26;16.70;99.90
7002;DHT22;3541;53.230;10.518;2023-07-31T08:29:52;16.70;99.90
7002;DHT22;3541;53.230;10.518;2023-07-31T08:32:20;16.70;99.90
7002;DHT22;3541;53.230;10.518;2023-07-31T08:34:47;16.70;99.90
7002;DHT22;3541;53.230;10.518;2023-07-31T08:37:14;16.70;99.90
7002;DHT22;3541;53.230;10.518;2023-07-31T08:39:41;16.70;99.90
7002;DHT22;3541;53.230;10.518;2023-07-31T08:42:08;16.70;99.90
7002;DHT22;3541;53.230;10.518;2023-07-31T08:44:35;16.70;99.90
7002;DHT22;3541;53.230;10.518;2023-07-31T08:47:03;16.70;99.90
7002;DHT22;3541;53.230;10.518;2023-07-31T08:49:31;16.70;99.90
7002;DHT22;3541;53.230;10.518;2023-07-31T08:51:58;16.70;99.90
7002;DHT22;3541;53.230;10.518;2023-07-31T08:54:25;16.70;99.90
7002;DHT22;3541;53.230;10.518;2023-07-31T08:56:56;16.70;99.90
7002;DHT22;3541;53.230;10.518;2023-07-31T08:59:25;16.70;99.90
7002;DHT22;3541;53.230;10.518;2023-07-31T09:01:55;16.70;99.90
7002;DHT22;3541;53.230;10.518;2023-07-31T09:04:24;16.70;99.90
7002;DHT22;3541;53.230;10.518;2023-07-31T09:06:57;16.70;99.90
7002;DHT22;3541;53.230;10.518;2023-07-31T09:09:26;16.70;99.90
7002;DHT22;3541;53.230;10.518;2023-07-31T09:11:53;16.70;99.90
7002;DHT22;3541;53.230;10.518;2023-07-31T09:14:19;16.70;99.90
7002;DHT22;3541;53.230;10.518;2023-07-31T09:16:53;16.70;99.90
7002;DHT22;3541;53.230;10.518;2023-07-31T09:19:27;16.70;99.90
7002;DHT22;3541;53.230;10.518;2023-07-31T09:21:55;16.80;99.90
7002;DHT22;3541;53.230;10.518;2023-07-31T09:24:25;16.80;99.90
7002;DHT22;3541;53.230;10.518;2023-07-31T09:26:54;16.80;99.90
7002;DHT22;3541;53.230;10.518;2023-07-31T09:29:20;16.80;99.90
7002;DHT22;3541;53.230;10.518;2023-07-31T09:31:47;16.90;99.90
7002;DHT22;3541;53.230;10.518;2023-07-31T09:34:14;16.80;99.90
7002;DHT22;3541;53.230;10.518;2023-07-31T09:36:41;16.80;99.90
7002;DHT22;3541;53.230;10.518;2023-07-31T09:39:11;16.80;99.90
7002;DHT22;3541;53.230;10.518;2023-07-31T09:41:38;16.80;99.90
7002;DHT22;3541;53.230;10.518;2023-07-31T09:44:05;16.80;99.90
7002;DHT22;3541;53.230;10.518;2023-07-31T09:46:35;16.90;99.90
7002;DHT22;3541;53.230;10.518;2023-07-31T09:49:06;16.90;99.90
7002;DHT22;3541;53.230;10.518;2023-07-31T09:51:34;16.90;99.90
7002;DHT22;3541;53.230;10.518;2023-07-31T09:54:09;17.00;99.90
7002;DHT22;3541;53.230;10.518;2023-07-31T09:56:42;17.00;99.90
7002;DHT22;3541;53.230;10.518;2023-07-31T09:59:11;17.00;99.90
7002;DHT22;3541;53.230;10.518;2023-07-31T10:01:38;17.00;99.90
7002;DHT22;3541;53.230;10.518;2023-07-31T10:04:05;17.10;99.90
7002;DHT22;3541;53.230;10.518;2023-07-31T10:06:34;17.10;99.90
7002;DHT22;3541;53.230;10.518;2023-07-31T10:09:02;17.10;99.90
7002;DHT22;3541;53.230;10.518;2023-07-31T10:11:30;17.10;99.90
7002;DHT22;3541;53.230;10.518;2023-07-31T10:13:59;17.00;99.90
7002;DHT22;3541;53.230;10.518;2023-07-31T10:16:26;17.10;99.90
7002;DHT22;3541;53.230;10.518;2023-07-31T10:18:54;17.10;99.90
7002;DHT22;3541;53.230;10.518;2023-07-31T10:21:20;17.10;99.90
7002;DHT22;3541;53.230;10.518;2023-07-31T10:23:47;17.20;99.90
7002;DHT22;3541;53.230;10.518;2023-07-31T10:26:16;17.20;99.90
7002;DHT22;3541;53.230;10.518;2023-07-31T10:28:45;17.20;99.90
7002;DHT22;3541;53.230;10.518;2023-07-31T10:31:13;17.20;99.90
7002;DHT22;3541;53.230;10.518;2023-07-31T10:33:40;17.30;99.90
7002;DHT22;3541;53.230;10.518;2023-07-31T10:36:13;17.40;99.90
7002;DHT22;3541;53.230;10.518;2023-07-31T10:38:42;17.40;99.90
7002;DHT22;3541;53.230;10.518;2023-07-31T10:41:09;17.50;99.90
7002;DHT22;3541;53.230;10.518;2023-07-31T10:43:36;17.60;99.90
7002;DHT22;3541;53.230;10.518;2023-07-31T10:46:07;17.60;99.90
7002;DHT22;3541;53.230;10.518;2023-07-31T10:48:35;17.60;99.90
7002;DHT22;3541;53.230;10.518;2023-07-31T10:51:07;17.60;99.90
7002;DHT22;3541;53.230;10.518;2023-07-31T10:53:35;17.60;99.90
7002;DHT22;3541;53.230;10.518;2023-07-31T10:56:04;17.70;99.90
7002;DHT22;3541;53.230;10.518;2023-07-31T10:58:31;17.60;99.90
7002;DHT22;3541;53.230;10.518;2023-07-31T11:00:59;17.50;99.90
7002;DHT22;3541;53.230;10.518;2023-07-31T11:03:40;17.50;99.90
7002;DHT22;3541;53.230;10.518;2023-07-31T11:06:07;17.50;99.90
7002;DHT22;3541;53.230;10.518;2023-07-31T11:08:35;17.50;99.90
7002;DHT22;3541;53.230;10.518;2023-07-31T11:11:08;17.50;99.90
7002;DHT22;3541;53.230;10.518;2023-07-31T11:13:40;17.50;99.90
7002;DHT22;3541;53.230;10.518;2023-07-31T11:16:07;17.50;99.90
7002;DHT22;3541;53.230;10.518;2023-07-31T11:18:35;17.50;99.90
7002;DHT22;3541;53.230;10.518;2023-07-31T11:21:04;17.60;99.90
7002;DHT22;3541;53.230;10.518;2023-07-31T11:23:31;17.60;99.90
7002;DHT22;3541;53.230;10.518;2023-07-31T11:25:59;17.60;99.90
7002;DHT22;3541;53.230;10.518;2023-07-31T11:28:31;17.60;99.90
7002;DHT22;3541;53.230;10.518;2023-07-31T11:30:59;17.60;99.90
7002;DHT22;3541;53.230;10.518;2023-07-31T11:33:26;17.50;99.90
7002;DHT22;3541;53.230;10.518;2023-07-31T11:35:53;17.60;99.90
7002;DHT22;3541;53.230;10.518;2023-07-31T11:38:24;17.50;99.90
7002;DHT22;3541;53.230;10.518;2023-07-31T11:40:51;17.50;99.90
7002;DHT22;3541;53.230;10.518;2023-07-31T11:43:19;17.60;99.90
7002;DHT22;3541;53.230;10.518;2023-07-31T11:45:47;17.70;99.90
7002;DHT22;3541;53.230;10.518;2023-07-31T11:48:22;17.70;99.90
7002;DHT22;3541;53.230;10.518;2023-07-31T11:50:50;17.70;99.90
7002;DHT22;3541;53.230;10.518;2023-07-31T11:53:20;17.60;99.90
7002;DHT22;3541;53.230;10.518;2023-07-31T11:55:48;17.70;99.90
7002;DHT22;3541;53.230;10.518;2023-07-31T11:58:16;17.70;99.90
7002;DHT22;3541;53.230;10.518;2023-07-31T12:00:44;17.80;99.90
7002;DHT22;3541;53.230;10.518;2023-07-31T12:03:11;17.80;99.90
7002;DHT22;3541;53.230;10.518;2023-07-31T12:05:38;17.80;99.90
7002;DHT22;3541;53.230;10.518;2023-07-31T12:08:09;17.80;99.90
7002;DHT22;3541;53.230;10.518;2023-07-31T12:10:38;17.80;99.90
7002;DHT22;3541;53.230;10.518;2023-07-31T12:13:08;17.70;99.90
7002;DHT22;3541;53.230;10.518;2023-07-31T12:15:37;17.60;99.90
7002;DHT22;3541;53.230;10.518;2023-07-31T12:18:06;17.60;99.90
7002;DHT22;3541;53.230;10.518;2023-07-31T12:20:33;17.60;99.90
7002;DHT22;3541;53.230;10.518;2023-07-31T12:23:01;17.60;99.90
7002;DHT22;3541;53.230;10.518;2023-07-31T12:25:32;17.60;99.90
7002;DHT22;3541;53.230;10.518;2023-07-31T12:28:06;17.70;99.90
7002;DHT22;3541;53.230;10.518;2023-07-31T12:30:36;17.70;99.90
7002;DHT22;3541;53.230;10.518;2023-07-31T12:33:03;17.70;99.90
7002;DHT22;3541;53.230;10.518;2023-07-31T12:35:36;17.70;99.90
7002;DHT22;3541;53.230;10.518;2023-07-31T12:38:03;17.70;99.90
7002;DHT22;3541;53.230;10.518;2023-07-31T12:40:29;17.70;99.90
7002;DHT22;3541;53.230;10.518;2023-07-31T12:42:56;17.80;99.90
7002;DHT22;3541;53.230;10.518;2023-07-31T12:45:24;17.70;99.90
7002;DHT22;3541;53.230;10.518;2023-07-31T12:47:51;17.70;99.90
7002;DHT22;3541;53.230;10.518;2023-07-31T12:50:17;17.60;99.90
7002;DHT22;3541;53.230;10.518;2023-07-31T12:52:44;17.70;99.90
7002;DHT22;3541;53.230;10.518;2023-07-31T12:55:11;17.70;99.90
7002;DHT22;3541;53.230;10.518;2023-07-31T12:57:38;17.70;99.90
7002;DHT22;3541;53.230;10.518;2023-07-31T13:00:06;17.70;99.90
7002;DHT22;3541;53.230;10.518;2023-07-31T13:02:34;17.70;99.90
7002;DHT22;3541;53.230;10.518;2023-07-31T13:05:01;17.60;99.90
7002;DHT22;3541;53.230;10.518;2023-07-31T13:07:27;17.60;99.90
7002;DHT22;3541;53.230;10.518;2023-07-31T13:09:54;17.70;99.90
7002;DHT22;3541;53.230;10.518;2023-07-31T13:12:20;17.60;99.90
7002;DHT22;3541;53.230;10.518;2023-07-31T13:14:47;17.60;99.90
7002;DHT22;3541;53.230;10.518;2023-07-31T13:17:14;17.60;99.90
7002;DHT22;3541;53.230;10.518;2023-07-31T13:19:42;17.60;99.90
7002;DHT22;3541;53.230;10.518;2023-07-31T13:22:08;17.60;99.90
7002;DHT22;3541;53.230;10.518;2023-07-31T13:24:35;17.60;99.90
7002;DHT22;3541;53.230;10.518;2023-07-31T13:27:02;17.60;99.90
7002;DHT22;3541;53.230;10.518;2023-07-31T13:29:29;17.60;99.90
7002;DHT22;3541;53.230;10.518;2023-07-31T13:31:57;17.60;99.90
7002;DHT22;3541;53.230;10.518;2023-07-31T13:34:24;17.60;99.90
7002;DHT22;3541;53.230;10.518;2023-07-31T13:36:54;17.60;99.90
7002;DHT22;3541;53.230;10.518;2023-07-31T13:39:21;17.60;99.90
7002;DHT22;3541;53.230;10.518;2023-07-31T13:41:48;17.70;99.90
7002;DHT22;3541;53.230;10.518;2023-07-31T13:44:15;17.70;99.90
7002;DHT22;3541;53.230;10.518;2023-07-31T13:46:41;17.70;99.90
7002;DHT22;3541;53.230;10.518;2023-07-31T13:49:08;17.70;99.90
7002;DHT22;3541;53.230;10.518;2023-07-31T13:51:34;17.70;99.90
7002;DHT22;3541;53.230;10.518;2023-07-31T13:54:02;17.60;99.90
7002;DHT22;3541;53.230;10.518;2023-07-31T13:56:29;17.60;99.90
7002;DHT22;3541;53.230;10.518;2023-07-31T13:58:55;17.60;99.90
7002;DHT22;3541;53.230;10.518;2023-07-31T14:01:22;17.60;99.90
7002;DHT22;3541;53.230;10.518;2023-07-31T14:03:49;17.60;99.90
7002;DHT22;3541;53.230;10.518;2023-07-31T14:06:16;17.60;99.90
7002;DHT22;3541;53.230;10.518;2023-07-31T14:08:42;17.70;99.90
7002;DHT22;3541;53.230;10.518;2023-07-31T14:11:10;17.60;99.90
7002;DHT22;3541;53.230;10.518;2023-07-31T14:13:37;17.60;99.90
7002;DHT22;3541;53.230;10.518;2023-07-31T14:16:04;17.60;99.90
7002;DHT22;3541;53.230;10.518;2023-07-31T14:18:30;17.60;99.90
7002;DHT22;3541;53.230;10.518;2023-07-31T14:20:57;17.60;99.90
7002;DHT22;3541;53.230;10.518;2023-07-31T14:23:24;17.60;99.90
7002;DHT22;3541;53.230;10.518;2023-07-31T14:25:50;17.60;99.90
7002;DHT22;3541;53.230;10.518;2023-07-31T14:28:18;17.50;99.90
7002;DHT22;3541;53.230;10.518;2023-07-31T14:30:45;17.50;99.90
7002;DHT22;3541;53.230;10.518;2023-07-31T14:33:11;17.50;99.90
7002;DHT22;3541;53.230;10.518;2023-07-31T14:35:38;17.60;99.90
7002;DHT22;3541;53.230;10.518;2023-07-31T14:38:04;17.60;99.90
7002;DHT22;3541;53.230;10.518;2023-07-31T14:40:31;17.60;99.90
7002;DHT22;3541;53.230;10.518;2023-07-31T14:42:58;17.60;99.90
7002;DHT22;3541;53.230;10.518;2023-07-31T14:45:26;17.70;99.90
7002;DHT22;3541;53.230;10.518;2023-07-31T14:47:52;17.70;99.90
7002;DHT22;3541;53.230;10.518;2023-07-31T14:50:20;17.60;99.90
7002;DHT22;3541;53.230;10.518;2023-07-31T14:52:47;17.60;99.90
7002;DHT22;3541;53.230;10.518;2023-07-31T14:55:13;17.60;99.90
7002;DHT22;3541;53.230;10.518;2023-07-31T14:57:40;17.60;99.90
7002;DHT22;3541;53.230;10.518;2023-07-31T15:00:08;17.60;99.90
7002;DHT22;3541;53.230;10.518;2023-07-31T15:02:37;17.60;99.90
7002;DHT22;3541;53.230;10.518;2023-07-31T15:05:05;17.60;99.90
7002;DHT22;3541;53.230;10.518;2023-07-31T15:07:31;17.60;99.90
7002;DHT22;3541;53.230;10.518;2023-07-31T15:09:58;17.70;99.90
7002;DHT22;3541;53.230;10.518;2023-07-31T15:12:25;17.70;99.90
7002;DHT22;3541;53.230;10.518;2023-07-31T15:14:52;17.70;99.90
7002;DHT22;3541;53.230;10.518;2023-07-31T15:17:20;17.70;99.90
7002;DHT22;3541;53.230;10.518;2023-07-31T15:19:47;17.70;99.90
7002;DHT22;3541;53.230;10.518;2023-07-31T15:22:14;17.70;99.90
7002;DHT22;3541;53.230;10.518;2023-07-31T15:24:41;17.60;99.90
7002;DHT22;3541;53.230;10.518;2023-07-31T15:27:07;17.60;99.90
7002;DHT22;3541;53.230;10.518;2023-07-31T15:29:34;17.70;99.90
7002;DHT22;3541;53.230;10.518;2023-07-31T15:32:03;17.70;99.90
7002;DHT22;3541;53.230;10.518;2023-07-31T15:34:30;17.70;99.90
7002;DHT22;3541;53.230;10.518;2023-07-31T15:36:58;17.70;99.90
7002;DHT22;3541;53.230;10.518;2023-07-31T15:39:25;17.70;99.90
7002;DHT22;3541;53.230;10.518;2023-07-31T15:41:51;17.70;99.90
7002;DHT22;3541;53.230;10.518;2023-07-31T15:44:18;17.70;99.90
7002;DHT22;3541;53.230;10.518;2023-07-31T15:46:46;17.70;99.90